sensor_id;sensor_type;location;lat;lon;timestamp;temperature;humidity
25732;DHT22;13585;50.864;4.406;2023-02-11T00:00:12;14.90;68.90
25732;DHT22;13585;50.864;4.406;2023-02-11T00:02:38;14.90;68.90
25732;DHT22;13585;50.864;4.406;2023-02-11T00:05:04;14.90;68.80
25732;DHT22;13585;50.864;4.406;2023-02-11T00:07:30;14.90;68.80
25732;DHT22;13585;50.864;4.406;2023-02-11T00:09:56;14.80;68.80
25732;DHT22;13585;50.864;4.406;2023-02-11T00:12:22;14.80;69.50
25732;DHT22;13585;50.864;4.406;2023-02-11T00:14:48;14.90;68.80
25732;DHT22;13585;50.864;4.406;2023-02-11T00:17:14;14.80;68.70
25732;DHT22;13585;50.864;4.406;2023-02-11T00:19:39;14.90;68.70
25732;DHT22;13585;50.864;4.406;2023-02-11T00:22:05;14.90;68.70
25732;DHT22;13585;50.864;4.406;2023-02-11T00:24:31;14.80;68.60
25732;DHT22;13585;50.864;4.406;2023-02-11T00:26:57;14.80;68.60
25732;DHT22;13585;50.864;4.406;2023-02-11T00:29:22;14.90;68.70
25732;DHT22;13585;50.864;4.406;2023-02-11T00:31:48;14.80;68.50
25732;DHT22;13585;50.864;4.406;2023-02-11T00:34:14;14.90;68.60
25732;DHT22;13585;50.864;4.406;2023-02-11T00:36:40;14.90;68.60
25732;DHT22;13585;50.864;4.406;2023-02-11T00:39:06;14.80;68.50
25732;DHT22;13585;50.864;4.406;2023-02-11T00:41:32;14.80;68.40
25732;DHT22;13585;50.864;4.406;2023-02-11T00:43:58;14.80;68.40
25732;DHT22;13585;50.864;4.406;2023-02-11T00:46:23;14.80;68.40
25732;DHT22;13585;50.864;4.406;2023-02-11T00:48:49;14.80;68.40
25732;DHT22;13585;50.864;4.406;2023-02-11T00:51:16;14.80;68.40
25732;DHT22;13585;50.864;4.406;2023-02-11T00:53:42;14.80;68.30
25732;DHT22;13585;50.864;4.406;2023-02-11T00:56:08;14.80;68.30
25732;DHT22;13585;50.864;4.406;2023-02-11T00:58:34;14.80;68.30
25732;DHT22;13585;50.864;4.406;2023-02-11T01:01:00;14.80;68.30
25732;DHT22;13585;50.864;4.406;2023-02-11T01:03:29;14.80;68.30
25732;DHT22;13585;50.864;4.406;2023-02-11T01:05:55;14.80;68.30
25732;DHT22;13585;50.864;4.406;2023-02-11T01:08:21;14.90;68.30
25732;DHT22;13585;50.864;4.406;2023-02-11T01:10:57;14.80;68.30
25732;DHT22;13585;50.864;4.406;2023-02-11T01:13:24;14.80;68.30
25732;DHT22;13585;50.864;4.406;2023-02-11T01:15:50;14.80;68.10
25732;DHT22;13585;50.864;4.406;2023-02-11T01:18:16;14.80;68.10
25732;DHT22;13585;50.864;4.406;2023-02-11T01:20:41;14.80;68.20
25732;DHT22;13585;50.864;4.406;2023-02-11T01:23:07;14.80;68.10
25732;DHT22;13585;50.864;4.406;2023-02-11T01:25:33;14.80;68.10
25732;DHT22;13585;50.864;4.406;2023-02-11T01:27:58;14.80;68.10
25732;DHT22;13585;50.864;4.406;2023-02-11T01:30:24;14.80;68.10
25732;DHT22;13585;50.864;4.406;2023-02-11T01:32:49;14.80;68.00
25732;DHT22;13585;50.864;4.406;2023-02-11T01:35:15;14.80;68.10
25732;DHT22;13585;50.864;4.406;2023-02-11T01:37:41;14.80;68.00
25732;DHT22;13585;50.864;4.406;2023-02-11T01:40:11;14.80;68.80
25732;DHT22;13585;50.864;4.406;2023-02-11T01:42:37;14.80;68.00
25732;DHT22;13585;50.864;4.406;2023-02-11T01:48:25;14.80;68.00
25732;DHT22;13585;50.864;4.406;2023-02-11T01:50:58;14.80;67.80
25732;DHT22;13585;50.864;4.406;2023-02-11T01:53:25;14.80;67.90
25732;DHT22;13585;50.864;4.406;2023-02-11T01:56:10;14.80;67.80
25732;DHT22;13585;50.864;4.406;2023-02-11T01:59:00;14.80;67.80
25732;DHT22;13585;50.864;4.406;2023-02-11T02:01:28;14.80;67.90
25732;DHT22;13585;50.864;4.406;2023-02-11T02:03:58;14.80;67.80
25732;DHT22;13585;50.864;4.406;2023-02-11T02:08:56;14.80;67.80
25732;DHT22;13585;50.864;4.406;2023-02-11T02:11:25;14.70;67.80
25732;DHT22;13585;50.864;4.406;2023-02-11T02:13:50;14.70;67.70
25732;DHT22;13585;50.864;4.406;2023-02-11T02:16:28;14.80;68.10
25732;DHT22;13585;50.864;4.406;2023-02-11T02:19:35;14.80;67.80
25732;DHT22;13585;50.864;4.406;2023-02-11T02:41:29;14.70;67.70
25732;DHT22;13585;50.864;4.406;2023-02-11T02:43:56;14.70;67.70
25732;DHT22;13585;50.864;4.406;2023-02-11T02:46:25;14.80;67.70
25732;DHT22;13585;50.864;4.406;2023-02-11T02:48:52;14.70;67.70
25732;DHT22;13585;50.864;4.406;2023-02-11T03:05:20;14.70;67.60
25732;DHT22;13585;50.864;4.406;2023-02-11T03:07:57;14.70;67.60
25732;DHT22;13585;50.864;4.406;2023-02-11T03:10:29;14.70;67.60
25732;DHT22;13585;50.864;4.406;2023-02-11T03:12:56;14.70;67.60
25732;DHT22;13585;50.864;4.406;2023-02-11T03:15:24;14.70;67.50
25732;DHT22;13585;50.864;4.406;2023-02-11T03:17:53;14.70;67.50
25732;DHT22;13585;50.864;4.406;2023-02-11T03:20:22;14.70;67.50
25732;DHT22;13585;50.864;4.406;2023-02-11T03:22:56;14.70;67.50
25732;DHT22;13585;50.864;4.406;2023-02-11T03:25:28;14.70;67.50
25732;DHT22;13585;50.864;4.406;2023-02-11T03:28:05;14.70;67.50
25732;DHT22;13585;50.864;4.406;2023-02-11T03:30:42;14.70;67.50
25732;DHT22;13585;50.864;4.406;2023-02-11T03:33:35;14.70;67.40
25732;DHT22;13585;50.864;4.406;2023-02-11T03:36:02;14.70;67.40
25732;DHT22;13585;50.864;4.406;2023-02-11T03:38:34;14.70;67.30
25732;DHT22;13585;50.864;4.406;2023-02-11T03:41:00;14.70;67.40
25732;DHT22;13585;50.864;4.406;2023-02-11T03:43:35;14.70;67.30
25732;DHT22;13585;50.864;4.406;2023-02-11T03:46:03;14.70;67.20
25732;DHT22;13585;50.864;4.406;2023-02-11T03:48:33;14.70;67.20
25732;DHT22;13585;50.864;4.406;2023-02-11T03:51:02;14.70;67.30
25732;DHT22;13585;50.864;4.406;2023-02-11T03:53:30;14.70;67.30
25732;DHT22;13585;50.864;4.406;2023-02-11T03:55:57;14.70;67.30
25732;DHT22;13585;50.864;4.406;2023-02-11T03:58:24;14.70;67.30
25732;DHT22;13585;50.864;4.406;2023-02-11T04:00:50;14.70;67.30
25732;DHT22;13585;50.864;4.406;2023-02-11T04:03:15;14.70;67.20
25732;DHT22;13585;50.864;4.406;2023-02-11T04:05:41;14.70;67.50
25732;DHT22;13585;50.864;4.406;2023-02-11T04:08:07;14.70;67.20
25732;DHT22;13585;50.864;4.406;2023-02-11T04:10:32;14.70;67.20
25732;DHT22;13585;50.864;4.406;2023-02-11T04:12:58;14.70;67.20
25732;DHT22;13585;50.864;4.406;2023-02-11T04:15:24;14.70;67.20
25732;DHT22;13585;50.864;4.406;2023-02-11T04:17:50;14.70;67.20
25732;DHT22;13585;50.864;4.406;2023-02-11T04:20:15;14.70;67.20
25732;DHT22;13585;50.864;4.406;2023-02-11T04:22:41;14.70;67.20
25732;DHT22;13585;50.864;4.406;2023-02-11T04:25:07;14.70;67.20
25732;DHT22;13585;50.864;4.406;2023-02-11T04:27:33;14.70;67.10
25732;DHT22;13585;50.864;4.406;2023-02-11T04:29:59;14.70;67.20
25732;DHT22;13585;50.864;4.406;2023-02-11T04:32:25;14.70;67.10
25732;DHT22;13585;50.864;4.406;2023-02-11T04:34:50;14.70;67.10
25732;DHT22;13585;50.864;4.406;2023-02-11T04:37:16;14.70;67.10
25732;DHT22;13585;50.864;4.406;2023-02-11T04:39:42;14.70;67.10
25732;DHT22;13585;50.864;4.406;2023-02-11T04:42:07;14.70;67.10
25732;DHT22;13585;50.864;4.406;2023-02-11T04:44:33;14.70;67.00
25732;DHT22;13585;50.864;4.406;2023-02-11T04:46:58;14.70;67.00
25732;DHT22;13585;50.864;4.406;2023-02-11T04:49:24;14.70;67.00
25732;DHT22;13585;50.864;4.406;2023-02-11T04:51:50;14.70;67.00
25732;DHT22;13585;50.864;4.406;2023-02-11T04:54:15;14.70;67.00
25732;DHT22;13585;50.864;4.406;2023-02-11T04:56:41;14.70;67.00
25732;DHT22;13585;50.864;4.406;2023-02-11T04:59:07;14.70;67.00
25732;DHT22;13585;50.864;4.406;2023-02-11T05:01:33;14.70;67.00
25732;DHT22;13585;50.864;4.406;2023-02-11T05:03:59;14.70;66.90
25732;DHT22;13585;50.864;4.406;2023-02-11T05:06:24;14.70;66.90
25732;DHT22;13585;50.864;4.406;2023-02-11T05:08:50;14.70;66.90
25732;DHT22;13585;50.864;4.406;2023-02-11T05:11:19;14.70;66.90
25732;DHT22;13585;50.864;4.406;2023-02-11T05:13:46;14.70;66.90
25732;DHT22;13585;50.864;4.406;2023-02-11T05:16:12;14.70;66.80
25732;DHT22;13585;50.864;4.406;2023-02-11T05:18:42;14.70;66.80
25732;DHT22;13585;50.864;4.406;2023-02-11T05:21:13;14.70;66.90
25732;DHT22;13585;50.864;4.406;2023-02-11T05:23:40;14.60;66.80
25732;DHT22;13585;50.864;4.406;2023-02-11T05:26:06;14.70;66.80
25732;DHT22;13585;50.864;4.406;2023-02-11T05:28:32;14.70;66.80
25732;DHT22;13585;50.864;4.406;2023-02-11T05:30:57;14.70;66.80
25732;DHT22;13585;50.864;4.406;2023-02-11T05:33:23;14.60;66.70
25732;DHT22;13585;50.864;4.406;2023-02-11T05:35:49;14.70;66.80
25732;DHT22;13585;50.864;4.406;2023-02-11T05:38:15;14.70;66.80
25732;DHT22;13585;50.864;4.406;2023-02-11T05:40:41;14.70;66.80
25732;DHT22;13585;50.864;4.406;2023-02-11T05:43:07;14.70;66.80
25732;DHT22;13585;50.864;4.406;2023-02-11T05:45:33;14.70;66.70
25732;DHT22;13585;50.864;4.406;2023-02-11T05:47:58;14.70;66.70
25732;DHT22;13585;50.864;4.406;2023-02-11T05:50:24;14.70;66.70
25732;DHT22;13585;50.864;4.406;2023-02-11T05:52:50;14.60;66.60
25732;DHT22;13585;50.864;4.406;2023-02-11T05:55:16;14.60;66.60
25732;DHT22;13585;50.864;4.406;2023-02-11T05:57:41;14.70;66.70
25732;DHT22;13585;50.864;4.406;2023-02-11T06:00:08;14.60;66.60
25732;DHT22;13585;50.864;4.406;2023-02-11T06:02:34;14.60;66.60
25732;DHT22;13585;50.864;4.406;2023-02-11T06:05:00;14.60;66.60
25732;DHT22;13585;50.864;4.406;2023-02-11T06:07:25;14.60;66.60
25732;DHT22;13585;50.864;4.406;2023-02-11T06:09:51;14.60;66.60
25732;DHT22;13585;50.864;4.406;2023-02-11T06:12:16;14.60;66.60
25732;DHT22;13585;50.864;4.406;2023-02-11T06:14:42;14.70;66.60
25732;DHT22;13585;50.864;4.406;2023-02-11T06:17:08;14.70;66.60
25732;DHT22;13585;50.864;4.406;2023-02-11T06:19:33;14.70;66.60
25732;DHT22;13585;50.864;4.406;2023-02-11T06:21:59;14.70;66.50
25732;DHT22;13585;50.864;4.406;2023-02-11T06:24:24;14.60;66.50
25732;DHT22;13585;50.864;4.406;2023-02-11T06:26:50;14.60;66.50
25732;DHT22;13585;50.864;4.406;2023-02-11T06:29:16;14.70;66.50
25732;DHT22;13585;50.864;4.406;2023-02-11T06:31:41;14.60;66.40
25732;DHT22;13585;50.864;4.406;2023-02-11T06:34:08;14.70;66.60
25732;DHT22;13585;50.864;4.406;2023-02-11T06:36:34;14.70;66.50
25732;DHT22;13585;50.864;4.406;2023-02-11T06:39:00;14.70;66.50
25732;DHT22;13585;50.864;4.406;2023-02-11T06:41:25;14.70;66.50
25732;DHT22;13585;50.864;4.406;2023-02-11T06:43:52;14.70;66.60
25732;DHT22;13585;50.864;4.406;2023-02-11T06:46:17;14.70;66.60
25732;DHT22;13585;50.864;4.406;2023-02-11T06:48:43;14.70;66.60
25732;DHT22;13585;50.864;4.406;2023-02-11T06:51:10;14.70;66.70
25732;DHT22;13585;50.864;4.406;2023-02-11T06:53:39;14.70;66.70
25732;DHT22;13585;50.864;4.406;2023-02-11T06:56:07;14.70;66.80
25732;DHT22;13585;50.864;4.406;2023-02-11T06:58:33;14.70;66.70
25732;DHT22;13585;50.864;4.406;2023-02-11T07:01:02;14.70;66.80
25732;DHT22;13585;50.864;4.406;2023-02-11T07:03:28;14.70;66.90
25732;DHT22;13585;50.864;4.406;2023-02-11T07:05:53;14.70;66.80
25732;DHT22;13585;50.864;4.406;2023-02-11T07:08:19;14.80;67.00
25732;DHT22;13585;50.864;4.406;2023-02-11T07:10:45;14.80;67.80
25732;DHT22;13585;50.864;4.406;2023-02-11T07:13:10;14.70;67.00
25732;DHT22;13585;50.864;4.406;2023-02-11T07:15:36;14.80;67.10
25732;DHT22;13585;50.864;4.406;2023-02-11T07:18:02;14.80;67.20
25732;DHT22;13585;50.864;4.406;2023-02-11T07:20:28;14.80;67.30
25732;DHT22;13585;50.864;4.406;2023-02-11T07:22:54;14.80;67.30
25732;DHT22;13585;50.864;4.406;2023-02-11T07:25:19;14.80;67.40
25732;DHT22;13585;50.864;4.406;2023-02-11T07:27:45;14.90;68.30
25732;DHT22;13585;50.864;4.406;2023-02-11T07:30:11;14.80;67.60
25732;DHT22;13585;50.864;4.406;2023-02-11T07:32:37;14.80;67.60
25732;DHT22;13585;50.864;4.406;2023-02-11T07:35:03;14.90;67.70
25732;DHT22;13585;50.864;4.406;2023-02-11T07:37:29;14.90;67.80
25732;DHT22;13585;50.864;4.406;2023-02-11T07:39:54;14.90;67.90
25732;DHT22;13585;50.864;4.406;2023-02-11T07:42:20;14.90;68.00
25732;DHT22;13585;50.864;4.406;2023-02-11T07:44:45;14.90;68.00
25732;DHT22;13585;50.864;4.406;2023-02-11T07:47:11;14.90;68.10
25732;DHT22;13585;50.864;4.406;2023-02-11T07:49:37;14.90;68.10
25732;DHT22;13585;50.864;4.406;2023-02-11T07:52:02;15.00;68.20
25732;DHT22;13585;50.864;4.406;2023-02-11T07:54:28;14.90;68.20
25732;DHT22;13585;50.864;4.406;2023-02-11T07:56:54;15.00;68.30
25732;DHT22;13585;50.864;4.406;2023-02-11T07:59:19;15.00;68.40
25732;DHT22;13585;50.864;4.406;2023-02-11T08:01:45;15.00;68.40
25732;DHT22;13585;50.864;4.406;2023-02-11T08:04:10;15.00;68.40
25732;DHT22;13585;50.864;4.406;2023-02-11T08:06:40;15.00;68.50
25732;DHT22;13585;50.864;4.406;2023-02-11T08:09:07;15.00;68.50
25732;DHT22;13585;50.864;4.406;2023-02-11T08:11:34;15.00;68.50
25732;DHT22;13585;50.864;4.406;2023-02-11T08:13:59;15.00;68.60
25732;DHT22;13585;50.864;4.406;2023-02-11T08:16:27;15.00;68.70
25732;DHT22;13585;50.864;4.406;2023-02-11T08:18:58;15.10;68.80
25732;DHT22;13585;50.864;4.406;2023-02-11T08:21:24;15.10;68.80
25732;DHT22;13585;50.864;4.406;2023-02-11T08:23:50;15.10;68.80
25732;DHT22;13585;50.864;4.406;2023-02-11T08:26:18;15.10;68.80
25732;DHT22;13585;50.864;4.406;2023-02-11T08:28:46;15.10;68.80
25732;DHT22;13585;50.864;4.406;2023-02-11T08:31:18;15.10;68.80
25732;DHT22;13585;50.864;4.406;2023-02-11T08:33:44;15.10;68.90
25732;DHT22;13585;50.864;4.406;2023-02-11T08:36:14;15.10;68.90
25732;DHT22;13585;50.864;4.406;2023-02-11T08:38:39;15.20;69.00
25732;DHT22;13585;50.864;4.406;2023-02-11T08:41:06;15.10;68.90
25732;DHT22;13585;50.864;4.406;2023-02-11T08:43:32;15.10;68.90
25732;DHT22;13585;50.864;4.406;2023-02-11T08:45:58;15.10;68.90
25732;DHT22;13585;50.864;4.406;2023-02-11T08:48:24;15.10;68.90
25732;DHT22;13585;50.864;4.406;2023-02-11T08:50:50;15.10;69.00
25732;DHT22;13585;50.864;4.406;2023-02-11T08:53:16;15.10;69.00
25732;DHT22;13585;50.864;4.406;2023-02-11T08:55:52;15.10;69.00
25732;DHT22;13585;50.864;4.406;2023-02-11T08:58:19;15.10;69.10
25732;DHT22;13585;50.864;4.406;2023-02-11T09:00:45;15.10;69.00
25732;DHT22;13585;50.864;4.406;2023-02-11T09:03:12;15.10;69.00
25732;DHT22;13585;50.864;4.406;2023-02-11T09:05:46;15.10;69.00
25732;DHT22;13585;50.864;4.406;2023-02-11T09:08:12;15.10;69.10
25732;DHT22;13585;50.864;4.406;2023-02-11T09:10:39;15.10;69.10
25732;DHT22;13585;50.864;4.406;2023-02-11T09:13:05;15.10;69.10
25732;DHT22;13585;50.864;4.406;2023-02-11T09:15:32;15.10;69.10
25732;DHT22;13585;50.864;4.406;2023-02-11T09:17:57;15.10;69.00
25732;DHT22;13585;50.864;4.406;2023-02-11T09:20:23;15.10;69.00
25732;DHT22;13585;50.864;4.406;2023-02-11T09:22:51;15.10;69.10
25732;DHT22;13585;50.864;4.406;2023-02-11T09:25:16;15.10;69.10
25732;DHT22;13585;50.864;4.406;2023-02-11T09:27:42;15.10;69.10
25732;DHT22;13585;50.864;4.406;2023-02-11T09:30:08;15.10;69.00
25732;DHT22;13585;50.864;4.406;2023-02-11T09:32:34;15.10;69.00
25732;DHT22;13585;50.864;4.406;2023-02-11T09:34:59;15.10;69.00
25732;DHT22;13585;50.864;4.406;2023-02-11T09:37:25;15.10;69.00
25732;DHT22;13585;50.864;4.406;2023-02-11T09:39:51;15.10;69.00
25732;DHT22;13585;50.864;4.406;2023-02-11T09:45:11;15.10;69.00
25732;DHT22;13585;50.864;4.406;2023-02-11T09:47:56;15.10;68.90
25732;DHT22;13585;50.864;4.406;2023-02-11T09:50:36;15.10;68.90
25732;DHT22;13585;50.864;4.406;2023-02-11T09:53:13;15.10;68.90
25732;DHT22;13585;50.864;4.406;2023-02-11T09:55:45;15.10;68.90
25732;DHT22;13585;50.864;4.406;2023-02-11T09:58:19;15.10;68.90
25732;DHT22;13585;50.864;4.406;2023-02-11T10:01:07;15.00;68.80
25732;DHT22;13585;50.864;4.406;2023-02-11T10:04:13;15.10;68.90
25732;DHT22;13585;50.864;4.406;2023-02-11T10:06:48;15.10;68.90
25732;DHT22;13585;50.864;4.406;2023-02-11T10:14:28;15.00;68.80
25732;DHT22;13585;50.864;4.406;2023-02-11T10:20:19;15.00;68.80
25732;DHT22;13585;50.864;4.406;2023-02-11T10:23:08;15.00;68.80
25732;DHT22;13585;50.864;4.406;2023-02-11T10:25:53;15.10;68.70
25732;DHT22;13585;50.864;4.406;2023-02-11T10:28:32;15.00;68.70
25732;DHT22;13585;50.864;4.406;2023-02-11T10:31:17;15.00;68.80
25732;DHT22;13585;50.864;4.406;2023-02-11T10:36:11;15.10;68.70
25732;DHT22;13585;50.864;4.406;2023-02-11T10:38:37;15.00;68.80
25732;DHT22;13585;50.864;4.406;2023-02-11T10:41:04;15.00;68.80
25732;DHT22;13585;50.864;4.406;2023-02-11T10:43:31;15.00;68.70
25732;DHT22;13585;50.864;4.406;2023-02-11T10:45:58;15.00;68.70
25732;DHT22;13585;50.864;4.406;2023-02-11T10:48:50;15.00;68.70
25732;DHT22;13585;50.864;4.406;2023-02-11T10:51:19;15.00;68.80
25732;DHT22;13585;50.864;4.406;2023-02-11T10:53:49;15.00;68.70
25732;DHT22;13585;50.864;4.406;2023-02-11T10:56:25;15.10;68.80
25732;DHT22;13585;50.864;4.406;2023-02-11T10:58:59;15.00;68.80
25732;DHT22;13585;50.864;4.406;2023-02-11T11:01:44;15.00;68.80
25732;DHT22;13585;50.864;4.406;2023-02-11T11:04:32;15.00;68.80
25732;DHT22;13585;50.864;4.406;2023-02-11T11:10:24;15.00;68.80
25732;DHT22;13585;50.864;4.406;2023-02-11T11:12:50;15.00;68.70
25732;DHT22;13585;50.864;4.406;2023-02-11T11:15:20;15.00;68.60
25732;DHT22;13585;50.864;4.406;2023-02-11T11:17:50;15.00;68.70
25732;DHT22;13585;50.864;4.406;2023-02-11T11:20:28;15.00;68.80
25732;DHT22;13585;50.864;4.406;2023-02-11T11:25:35;15.00;68.90
25732;DHT22;13585;50.864;4.406;2023-02-11T11:28:02;15.00;68.80
25732;DHT22;13585;50.864;4.406;2023-02-11T11:30:37;15.00;68.90
25732;DHT22;13585;50.864;4.406;2023-02-11T11:33:03;15.00;68.90
25732;DHT22;13585;50.864;4.406;2023-02-11T11:35:30;15.00;68.90
25732;DHT22;13585;50.864;4.406;2023-02-11T11:38:02;15.10;69.00
25732;DHT22;13585;50.864;4.406;2023-02-11T11:40:33;15.00;69.00
25732;DHT22;13585;50.864;4.406;2023-02-11T11:43:17;15.10;68.80
25732;DHT22;13585;50.864;4.406;2023-02-11T11:45:58;15.00;68.80
25732;DHT22;13585;50.864;4.406;2023-02-11T11:48:29;15.00;68.90
25732;DHT22;13585;50.864;4.406;2023-02-11T11:50:58;15.00;69.00
25732;DHT22;13585;50.864;4.406;2023-02-11T11:56:23;15.00;69.30
25732;DHT22;13585;50.864;4.406;2023-02-11T11:58:49;15.00;69.20
25732;DHT22;13585;50.864;4.406;2023-02-11T12:10:15;15.10;69.70
25732;DHT22;13585;50.864;4.406;2023-02-11T12:12:54;15.00;69.80
25732;DHT22;13585;50.864;4.406;2023-02-11T12:15:33;15.10;70.00
25732;DHT22;13585;50.864;4.406;2023-02-11T12:26:25;15.00;70.30
25732;DHT22;13585;50.864;4.406;2023-02-11T12:31:36;15.10;70.70
25732;DHT22;13585;50.864;4.406;2023-02-11T12:48:48;15.10;70.90
25732;DHT22;13585;50.864;4.406;2023-02-11T12:56:45;15.10;71.00
25732;DHT22;13585;50.864;4.406;2023-02-11T12:59:39;15.10;71.20
25732;DHT22;13585;50.864;4.406;2023-02-11T13:02:20;15.00;71.10
25732;DHT22;13585;50.864;4.406;2023-02-11T13:04:53;15.00;71.10
25732;DHT22;13585;50.864;4.406;2023-02-11T13:07:28;15.10;71.10
25732;DHT22;13585;50.864;4.406;2023-02-11T13:10:03;15.10;71.30
25732;DHT22;13585;50.864;4.406;2023-02-11T13:12:32;15.10;71.30
25732;DHT22;13585;50.864;4.406;2023-02-11T13:15:18;15.10;71.30
25732;DHT22;13585;50.864;4.406;2023-02-11T13:18:04;15.10;71.30
25732;DHT22;13585;50.864;4.406;2023-02-11T13:20:48;15.10;71.40
25732;DHT22;13585;50.864;4.406;2023-02-11T13:23:56;15.10;71.40
25732;DHT22;13585;50.864;4.406;2023-02-11T13:27:05;15.10;71.50
25732;DHT22;13585;50.864;4.406;2023-02-11T13:32:14;15.10;71.40
25732;DHT22;13585;50.864;4.406;2023-02-11T13:37:20;15.10;71.50
25732;DHT22;13585;50.864;4.406;2023-02-11T13:40:04;15.10;71.60
25732;DHT22;13585;50.864;4.406;2023-02-11T13:42:31;15.10;71.60
25732;DHT22;13585;50.864;4.406;2023-02-11T13:44:58;15.10;71.60
25732;DHT22;13585;50.864;4.406;2023-02-11T13:47:31;15.10;71.70
25732;DHT22;13585;50.864;4.406;2023-02-11T13:49:59;15.10;71.70
25732;DHT22;13585;50.864;4.406;2023-02-11T13:52:35;15.10;71.70
25732;DHT22;13585;50.864;4.406;2023-02-11T13:57:37;15.10;71.80
25732;DHT22;13585;50.864;4.406;2023-02-11T14:12:22;15.10;71.80
25732;DHT22;13585;50.864;4.406;2023-02-11T14:15:18;15.10;72.00
25732;DHT22;13585;50.864;4.406;2023-02-11T14:17:43;15.10;71.90
25732;DHT22;13585;50.864;4.406;2023-02-11T14:20:32;15.10;71.90
25732;DHT22;13585;50.864;4.406;2023-02-11T14:22:58;15.10;72.10
25732;DHT22;13585;50.864;4.406;2023-02-11T14:25:25;15.10;72.00
25732;DHT22;13585;50.864;4.406;2023-02-11T14:30:47;15.10;72.00
25732;DHT22;13585;50.864;4.406;2023-02-11T14:38:46;15.10;72.10
25732;DHT22;13585;50.864;4.406;2023-02-11T14:41:19;15.10;72.20
25732;DHT22;13585;50.864;4.406;2023-02-11T14:44:23;15.10;72.10
25732;DHT22;13585;50.864;4.406;2023-02-11T14:46:47;15.10;72.10
25732;DHT22;13585;50.864;4.406;2023-02-11T14:49:26;15.10;72.90
25732;DHT22;13585;50.864;4.406;2023-02-11T14:52:03;15.10;72.20
25732;DHT22;13585;50.864;4.406;2023-02-11T14:54:31;15.10;72.20
25732;DHT22;13585;50.864;4.406;2023-02-11T14:57:24;15.10;72.20
25732;DHT22;13585;50.864;4.406;2023-02-11T15:00:03;15.10;72.30
25732;DHT22;13585;50.864;4.406;2023-02-11T15:02:36;15.10;72.20
25732;DHT22;13585;50.864;4.406;2023-02-11T15:05:21;15.10;72.20
25732;DHT22;13585;50.864;4.406;2023-02-11T15:07:53;15.10;72.40
25732;DHT22;13585;50.864;4.406;2023-02-11T15:10:32;15.10;72.20
25732;DHT22;13585;50.864;4.406;2023-02-11T15:13:00;15.10;72.30
25732;DHT22;13585;50.864;4.406;2023-02-11T15:15:28;15.10;72.20
25732;DHT22;13585;50.864;4.406;2023-02-11T15:17:55;15.10;72.20
25732;DHT22;13585;50.864;4.406;2023-02-11T15:20:27;15.10;72.30
25732;DHT22;13585;50.864;4.406;2023-02-11T15:23:02;15.10;72.30
25732;DHT22;13585;50.864;4.406;2023-02-11T15:25:29;15.10;72.40
25732;DHT22;13585;50.864;4.406;2023-02-11T15:27:56;15.10;72.40
25732;DHT22;13585;50.864;4.406;2023-02-11T15:30:23;15.10;72.40
25732;DHT22;13585;50.864;4.406;2023-02-11T15:32:52;15.10;72.50
25732;DHT22;13585;50.864;4.406;2023-02-11T15:35:24;15.10;72.40
25732;DHT22;13585;50.864;4.406;2023-02-11T15:37:50;15.10;72.40
25732;DHT22;13585;50.864;4.406;2023-02-11T15:40:21;15.10;72.40
25732;DHT22;13585;50.864;4.406;2023-02-11T15:43:01;15.10;72.40
25732;DHT22;13585;50.864;4.406;2023-02-11T15:48:40;15.10;72.50
25732;DHT22;13585;50.864;4.406;2023-02-11T15:53:55;15.10;72.50
25732;DHT22;13585;50.864;4.406;2023-02-11T15:56:28;15.10;72.50
25732;DHT22;13585;50.864;4.406;2023-02-11T15:58:57;15.10;72.50
25732;DHT22;13585;50.864;4.406;2023-02-11T16:01:35;15.10;72.60
25732;DHT22;13585;50.864;4.406;2023-02-11T16:04:02;15.10;72.70
25732;DHT22;13585;50.864;4.406;2023-02-11T16:06:41;15.10;72.60
25732;DHT22;13585;50.864;4.406;2023-02-11T16:11:56;15.10;72.80
25732;DHT22;13585;50.864;4.406;2023-02-11T16:16:54;15.10;72.90
25732;DHT22;13585;50.864;4.406;2023-02-11T16:19:21;15.10;72.90
25732;DHT22;13585;50.864;4.406;2023-02-11T16:21:48;15.10;72.90
25732;DHT22;13585;50.864;4.406;2023-02-11T16:24:27;15.10;72.90
25732;DHT22;13585;50.864;4.406;2023-02-11T16:27:00;15.10;73.10
25732;DHT22;13585;50.864;4.406;2023-02-11T16:29:29;15.10;73.00
25732;DHT22;13585;50.864;4.406;2023-02-11T16:32:14;15.10;72.70
25732;DHT22;13585;50.864;4.406;2023-02-11T16:34:41;15.10;72.90
25732;DHT22;13585;50.864;4.406;2023-02-11T16:37:07;15.10;73.00
25732;DHT22;13585;50.864;4.406;2023-02-11T16:39:33;15.10;73.10
25732;DHT22;13585;50.864;4.406;2023-02-11T16:41:59;15.10;73.30
25732;DHT22;13585;50.864;4.406;2023-02-11T16:44:24;15.10;73.40
25732;DHT22;13585;50.864;4.406;2023-02-11T16:46:51;15.10;73.40
25732;DHT22;13585;50.864;4.406;2023-02-11T16:49:22;15.10;73.50
25732;DHT22;13585;50.864;4.406;2023-02-11T16:51:51;15.10;74.30
25732;DHT22;13585;50.864;4.406;2023-02-11T16:54:18;15.10;73.60
25732;DHT22;13585;50.864;4.406;2023-02-11T16:56:44;15.10;73.60
25732;DHT22;13585;50.864;4.406;2023-02-11T16:59:10;15.10;74.50
25732;DHT22;13585;50.864;4.406;2023-02-11T17:01:37;15.10;73.90
25732;DHT22;13585;50.864;4.406;2023-02-11T17:04:05;15.20;74.00
25732;DHT22;13585;50.864;4.406;2023-02-11T17:06:32;15.10;74.10
25732;DHT22;13585;50.864;4.406;2023-02-11T17:08:58;15.10;74.10
25732;DHT22;13585;50.864;4.406;2023-02-11T17:11:24;15.10;74.10
25732;DHT22;13585;50.864;4.406;2023-02-11T17:13:50;15.20;74.20
25732;DHT22;13585;50.864;4.406;2023-02-11T17:16:19;15.20;74.30
25732;DHT22;13585;50.864;4.406;2023-02-11T17:18:45;15.20;74.40
25732;DHT22;13585;50.864;4.406;2023-02-11T17:21:11;15.20;74.40
25732;DHT22;13585;50.864;4.406;2023-02-11T17:23:37;15.20;74.50
25732;DHT22;13585;50.864;4.406;2023-02-11T17:26:03;15.20;74.50
25732;DHT22;13585;50.864;4.406;2023-02-11T17:28:29;15.20;74.70
25732;DHT22;13585;50.864;4.406;2023-02-11T17:30:56;15.20;74.80
25732;DHT22;13585;50.864;4.406;2023-02-11T17:33:22;15.20;74.80
25732;DHT22;13585;50.864;4.406;2023-02-11T17:35:48;15.20;74.90
25732;DHT22;13585;50.864;4.406;2023-02-11T17:38:14;15.20;74.90
25732;DHT22;13585;50.864;4.406;2023-02-11T17:40:39;15.20;75.00
25732;DHT22;13585;50.864;4.406;2023-02-11T17:43:05;15.20;75.00
25732;DHT22;13585;50.864;4.406;2023-02-11T17:45:30;15.20;75.10
25732;DHT22;13585;50.864;4.406;2023-02-11T17:47:56;15.20;75.20
25732;DHT22;13585;50.864;4.406;2023-02-11T17:50:22;15.20;75.30
25732;DHT22;13585;50.864;4.406;2023-02-11T17:52:47;15.20;75.30
25732;DHT22;13585;50.864;4.406;2023-02-11T17:55:13;15.20;75.50
25732;DHT22;13585;50.864;4.406;2023-02-11T17:57:38;15.20;75.40
25732;DHT22;13585;50.864;4.406;2023-02-11T18:00:06;15.20;75.60
25732;DHT22;13585;50.864;4.406;2023-02-11T18:02:32;15.20;75.60
25732;DHT22;13585;50.864;4.406;2023-02-11T18:04:58;15.20;75.60